sensor_id;sensor_type;location;lat;lon;timestamp;P1;durP1;ratioP1;P2;durP2;ratioP2
24713;SDS011;12820;51.580;5.010;2023-07-20T00:04:54;11.38;;;4.10;;
24713;SDS011;12820;51.580;5.010;2023-07-20T00:09:56;13.48;;;4.28;;
24713;SDS011;12820;51.580;5.010;2023-07-20T00:14:58;13.07;;;3.70;;
24713;SDS011;12820;51.580;5.010;2023-07-20T00:20:01;12.75;;;3.63;;
24713;SDS011;12820;51.580;5.010;2023-07-20T00:25:03;9.70;;;3.80;;
24713;SDS011;12820;51.580;5.010;2023-07-20T00:30:05;9.50;;;3.33;;
24713;SDS011;12820;51.580;5.010;2023-07-20T00:35:08;9.52;;;3.30;;
24713;SDS011;12820;51.580;5.010;2023-07-20T00:40:11;11.40;;;3.83;;
24713;SDS011;12820;51.580;5.010;2023-07-20T00:45:14;11.18;;;3.85;;
24713;SDS011;12820;51.580;5.010;2023-07-20T00:50:16;11.60;;;3.65;;
24713;SDS011;12820;51.580;5.010;2023-07-20T00:55:20;13.15;;;4.15;;
24713;SDS011;12820;51.580;5.010;2023-07-20T01:00:22;15.25;;;5.68;;
24713;SDS011;12820;51.580;5.010;2023-07-20T01:05:27;16.45;;;6.30;;
24713;SDS011;12820;51.580;5.010;2023-07-20T01:10:57;12.73;;;7.15;;
24713;SDS011;12820;51.580;5.010;2023-07-20T01:21:09;14.85;;;7.68;;
24713;SDS011;12820;51.580;5.010;2023-07-20T01:31:25;13.30;;;8.27;;
24713;SDS011;12820;51.580;5.010;2023-07-20T01:36:33;16.05;;;8.50;;
24713;SDS011;12820;51.580;5.010;2023-07-20T01:41:38;14.05;;;8.50;;
24713;SDS011;12820;51.580;5.010;2023-07-20T01:46:40;18.95;;;9.60;;
24713;SDS011;12820;51.580;5.010;2023-07-20T01:51:43;16.17;;;9.02;;
24713;SDS011;12820;51.580;5.010;2023-07-20T01:56:45;14.73;;;9.85;;
24713;SDS011;12820;51.580;5.010;2023-07-20T02:01:47;14.38;;;9.35;;
24713;SDS011;12820;51.580;5.010;2023-07-20T02:06:51;17.63;;;9.93;;
24713;SDS011;12820;51.580;5.010;2023-07-20T02:11:53;21.60;;;10.57;;
24713;SDS011;12820;51.580;5.010;2023-07-20T02:16:55;18.73;;;11.45;;
24713;SDS011;12820;51.580;5.010;2023-07-20T02:22:02;20.60;;;12.40;;
24713;SDS011;12820;51.580;5.010;2023-07-20T02:27:04;19.58;;;11.80;;
24713;SDS011;12820;51.580;5.010;2023-07-20T02:32:07;22.63;;;12.93;;
24713;SDS011;12820;51.580;5.010;2023-07-20T02:37:10;19.33;;;11.02;;
24713;SDS011;12820;51.580;5.010;2023-07-20T02:42:14;20.45;;;11.80;;
24713;SDS011;12820;51.580;5.010;2023-07-20T02:47:17;18.48;;;11.45;;
24713;SDS011;12820;51.580;5.010;2023-07-20T02:52:19;20.90;;;12.73;;
24713;SDS011;12820;51.580;5.010;2023-07-20T02:57:23;19.25;;;12.65;;
24713;SDS011;12820;51.580;5.010;2023-07-20T03:02:25;23.45;;;12.73;;
24713;SDS011;12820;51.580;5.010;2023-07-20T03:07:28;22.30;;;13.38;;
24713;SDS011;12820;51.580;5.010;2023-07-20T03:12:31;20.35;;;12.82;;
24713;SDS011;12820;51.580;5.010;2023-07-20T03:17:36;20.33;;;12.43;;
24713;SDS011;12820;51.580;5.010;2023-07-20T03:22:39;20.90;;;11.50;;
24713;SDS011;12820;51.580;5.010;2023-07-20T03:27:42;20.65;;;12.73;;
24713;SDS011;12820;51.580;5.010;2023-07-20T03:32:45;21.50;;;12.13;;
24713;SDS011;12820;51.580;5.010;2023-07-20T03:37:47;20.95;;;12.77;;
24713;SDS011;12820;51.580;5.010;2023-07-20T03:42:49;19.85;;;12.45;;
24713;SDS011;12820;51.580;5.010;2023-07-20T03:47:52;17.55;;;11.27;;
24713;SDS011;12820;51.580;5.010;2023-07-20T03:52:54;17.40;;;11.68;;
24713;SDS011;12820;51.580;5.010;2023-07-20T03:57:56;16.27;;;11.00;;
24713;SDS011;12820;51.580;5.010;2023-07-20T04:02:59;15.43;;;9.82;;
24713;SDS011;12820;51.580;5.010;2023-07-20T04:08:02;13.38;;;8.18;;
24713;SDS011;12820;51.580;5.010;2023-07-20T04:13:05;15.20;;;7.60;;
24713;SDS011;12820;51.580;5.010;2023-07-20T04:18:08;12.55;;;7.50;;
24713;SDS011;12820;51.580;5.010;2023-07-20T04:23:11;11.02;;;6.57;;
24713;SDS011;12820;51.580;5.010;2023-07-20T04:28:13;10.20;;;6.40;;
24713;SDS011;12820;51.580;5.010;2023-07-20T04:33:21;12.20;;;6.72;;
24713;SDS011;12820;51.580;5.010;2023-07-20T04:38:23;10.38;;;6.20;;
24713;SDS011;12820;51.580;5.010;2023-07-20T04:43:34;10.75;;;6.53;;
24713;SDS011;12820;51.580;5.010;2023-07-20T04:48:37;8.68;;;5.82;;
24713;SDS011;12820;51.580;5.010;2023-07-20T04:53:39;12.85;;;6.07;;
24713;SDS011;12820;51.580;5.010;2023-07-20T04:58:43;8.38;;;5.22;;
24713;SDS011;12820;51.580;5.010;2023-07-20T05:03:46;7.93;;;5.05;;
24713;SDS011;12820;51.580;5.010;2023-07-20T05:08:49;8.77;;;4.50;;
24713;SDS011;12820;51.580;5.010;2023-07-20T05:13:52;11.40;;;5.35;;
24713;SDS011;12820;51.580;5.010;2023-07-20T05:18:54;9.50;;;4.85;;
24713;SDS011;12820;51.580;5.010;2023-07-20T05:23:59;6.35;;;4.28;;
24713;SDS011;12820;51.580;5.010;2023-07-20T05:29:01;7.18;;;3.88;;
24713;SDS011;12820;51.580;5.010;2023-07-20T05:34:03;7.50;;;3.97;;
24713;SDS011;12820;51.580;5.010;2023-07-20T05:39:05;6.20;;;3.70;;
24713;SDS011;12820;51.580;5.010;2023-07-20T05:44:08;6.03;;;3.80;;
24713;SDS011;12820;51.580;5.010;2023-07-20T05:49:10;6.72;;;2.92;;
24713;SDS011;12820;51.580;5.010;2023-07-20T05:54:12;5.45;;;3.30;;
24713;SDS011;12820;51.580;5.010;2023-07-20T05:59:15;4.95;;;2.70;;
24713;SDS011;12820;51.580;5.010;2023-07-20T06:04:18;4.55;;;2.65;;
24713;SDS011;12820;51.580;5.010;2023-07-20T06:09:20;5.82;;;3.30;;
24713;SDS011;12820;51.580;5.010;2023-07-20T06:14:22;5.10;;;2.95;;
24713;SDS011;12820;51.580;5.010;2023-07-20T06:19:24;5.53;;;3.17;;
24713;SDS011;12820;51.580;5.010;2023-07-20T06:24:27;4.80;;;2.20;;
24713;SDS011;12820;51.580;5.010;2023-07-20T06:29:29;4.45;;;2.35;;
24713;SDS011;12820;51.580;5.010;2023-07-20T06:34:31;4.90;;;2.15;;
24713;SDS011;12820;51.580;5.010;2023-07-20T06:39:38;3.55;;;1.65;;
24713;SDS011;12820;51.580;5.010;2023-07-20T06:44:43;3.85;;;1.77;;
24713;SDS011;12820;51.580;5.010;2023-07-20T06:49:46;3.72;;;1.60;;
24713;SDS011;12820;51.580;5.010;2023-07-20T06:54:48;3.47;;;1.88;;
24713;SDS011;12820;51.580;5.010;2023-07-20T06:59:55;4.35;;;2.15;;
24713;SDS011;12820;51.580;5.010;2023-07-20T07:04:57;3.80;;;2.17;;
24713;SDS011;12820;51.580;5.010;2023-07-20T07:10:19;3.88;;;1.83;;
24713;SDS011;12820;51.580;5.010;2023-07-20T07:15:21;4.20;;;1.73;;
24713;SDS011;12820;51.580;5.010;2023-07-20T07:20:23;3.80;;;1.02;;
24713;SDS011;12820;51.580;5.010;2023-07-20T07:25:26;2.88;;;1.38;;
24713;SDS011;12820;51.580;5.010;2023-07-20T07:30:29;4.03;;;1.60;;
24713;SDS011;12820;51.580;5.010;2023-07-20T07:35:33;4.18;;;1.50;;
24713;SDS011;12820;51.580;5.010;2023-07-20T07:40:35;2.10;;;0.88;;
24713;SDS011;12820;51.580;5.010;2023-07-20T07:45:38;2.45;;;0.85;;
24713;SDS011;12820;51.580;5.010;2023-07-20T07:50:40;2.47;;;1.10;;
24713;SDS011;12820;51.580;5.010;2023-07-20T07:55:42;2.83;;;0.93;;
24713;SDS011;12820;51.580;5.010;2023-07-20T08:00:45;2.63;;;1.13;;
24713;SDS011;12820;51.580;5.010;2023-07-20T08:05:47;4.57;;;1.10;;
24713;SDS011;12820;51.580;5.010;2023-07-20T08:10:50;2.78;;;1.10;;
24713;SDS011;12820;51.580;5.010;2023-07-20T08:15:54;3.33;;;1.10;;
24713;SDS011;12820;51.580;5.010;2023-07-20T08:20:58;2.42;;;0.88;;
24713;SDS011;12820;51.580;5.010;2023-07-20T08:26:00;3.35;;;1.00;;
24713;SDS011;12820;51.580;5.010;2023-07-20T08:31:05;2.50;;;0.88;;
24713;SDS011;12820;51.580;5.010;2023-07-20T08:36:08;3.03;;;0.93;;
24713;SDS011;12820;51.580;5.010;2023-07-20T08:41:14;4.35;;;0.93;;
24713;SDS011;12820;51.580;5.010;2023-07-20T08:46:17;3.00;;;1.05;;
24713;SDS011;12820;51.580;5.010;2023-07-20T08:51:23;3.90;;;0.98;;
24713;SDS011;12820;51.580;5.010;2023-07-20T08:56:26;4.88;;;1.05;;
24713;SDS011;12820;51.580;5.010;2023-07-20T09:01:29;2.45;;;0.57;;
24713;SDS011;12820;51.580;5.010;2023-07-20T09:06:32;2.10;;;0.70;;
24713;SDS011;12820;51.580;5.010;2023-07-20T09:11:40;3.78;;;1.13;;
24713;SDS011;12820;51.580;5.010;2023-07-20T09:16:49;2.38;;;0.85;;
24713;SDS011;12820;51.580;5.010;2023-07-20T09:21:52;2.58;;;0.88;;
24713;SDS011;12820;51.580;5.010;2023-07-20T09:26:54;1.58;;;0.60;;
24713;SDS011;12820;51.580;5.010;2023-07-20T09:32:00;3.10;;;0.70;;
24713;SDS011;12820;51.580;5.010;2023-07-20T09:37:04;2.67;;;0.65;;
24713;SDS011;12820;51.580;5.010;2023-07-20T09:42:11;3.22;;;0.85;;
24713;SDS011;12820;51.580;5.010;2023-07-20T09:47:23;1.92;;;0.70;;
24713;SDS011;12820;51.580;5.010;2023-07-20T09:52:29;1.92;;;0.75;;
24713;SDS011;12820;51.580;5.010;2023-07-20T09:57:35;3.90;;;0.93;;
24713;SDS011;12820;51.580;5.010;2023-07-20T10:02:41;2.38;;;0.90;;
24713;SDS011;12820;51.580;5.010;2023-07-20T10:07:48;1.85;;;0.73;;
24713;SDS011;12820;51.580;5.010;2023-07-20T10:12:53;4.18;;;0.70;;
24713;SDS011;12820;51.580;5.010;2023-07-20T10:18:02;2.20;;;0.70;;
24713;SDS011;12820;51.580;5.010;2023-07-20T10:23:10;4.30;;;0.70;;
24713;SDS011;12820;51.580;5.010;2023-07-20T10:28:15;1.83;;;0.77;;
24713;SDS011;12820;51.580;5.010;2023-07-20T10:33:18;3.20;;;0.73;;
24713;SDS011;12820;51.580;5.010;2023-07-20T10:43:55;1.70;;;0.65;;
24713;SDS011;12820;51.580;5.010;2023-07-20T10:49:01;2.88;;;0.90;;
24713;SDS011;12820;51.580;5.010;2023-07-20T10:59:35;2.60;;;1.08;;
24713;SDS011;12820;51.580;5.010;2023-07-20T11:04:44;2.83;;;1.02;;
24713;SDS011;12820;51.580;5.010;2023-07-20T11:09:47;4.00;;;1.15;;
24713;SDS011;12820;51.580;5.010;2023-07-20T11:14:57;2.67;;;0.90;;
24713;SDS011;12820;51.580;5.010;2023-07-20T11:20:00;1.88;;;0.90;;
24713;SDS011;12820;51.580;5.010;2023-07-20T11:25:06;2.60;;;0.90;;
24713;SDS011;12820;51.580;5.010;2023-07-20T11:30:15;2.20;;;1.00;;
24713;SDS011;12820;51.580;5.010;2023-07-20T11:35:18;3.03;;;0.85;;
24713;SDS011;12820;51.580;5.010;2023-07-20T11:40:23;3.20;;;1.02;;
24713;SDS011;12820;51.580;5.010;2023-07-20T11:45:29;2.28;;;0.90;;
24713;SDS011;12820;51.580;5.010;2023-07-20T11:50:38;2.28;;;0.80;;
24713;SDS011;12820;51.580;5.010;2023-07-20T11:55:41;3.40;;;0.90;;
24713;SDS011;12820;51.580;5.010;2023-07-20T12:00:43;2.40;;;0.90;;
24713;SDS011;12820;51.580;5.010;2023-07-20T12:05:46;3.00;;;0.90;;
24713;SDS011;12820;51.580;5.010;2023-07-20T12:11:02;3.03;;;1.00;;
24713;SDS011;12820;51.580;5.010;2023-07-20T12:16:09;2.15;;;1.05;;
24713;SDS011;12820;51.580;5.010;2023-07-20T12:21:12;5.10;;;1.27;;
24713;SDS011;12820;51.580;5.010;2023-07-20T12:26:15;3.10;;;1.02;;
24713;SDS011;12820;51.580;5.010;2023-07-20T12:31:17;4.25;;;1.17;;
24713;SDS011;12820;51.580;5.010;2023-07-20T12:36:19;2.53;;;1.23;;
24713;SDS011;12820;51.580;5.010;2023-07-20T12:41:22;5.63;;;1.20;;
24713;SDS011;12820;51.580;5.010;2023-07-20T12:46:25;2.50;;;1.05;;
24713;SDS011;12820;51.580;5.010;2023-07-20T12:51:29;2.83;;;1.10;;
24713;SDS011;12820;51.580;5.010;2023-07-20T12:56:32;4.35;;;1.13;;
24713;SDS011;12820;51.580;5.010;2023-07-20T13:01:37;3.33;;;1.40;;
24713;SDS011;12820;51.580;5.010;2023-07-20T13:06:40;4.70;;;1.20;;
24713;SDS011;12820;51.580;5.010;2023-07-20T13:11:43;3.03;;;1.30;;
24713;SDS011;12820;51.580;5.010;2023-07-20T13:16:46;2.63;;;1.25;;
24713;SDS011;12820;51.580;5.010;2023-07-20T13:21:50;3.08;;;1.60;;
24713;SDS011;12820;51.580;5.010;2023-07-20T13:26:52;2.85;;;1.17;;
24713;SDS011;12820;51.580;5.010;2023-07-20T13:31:54;4.03;;;1.40;;
24713;SDS011;12820;51.580;5.010;2023-07-20T13:36:57;4.35;;;1.27;;
24713;SDS011;12820;51.580;5.010;2023-07-20T13:41:59;4.75;;;1.42;;
24713;SDS011;12820;51.580;5.010;2023-07-20T13:47:03;3.75;;;1.42;;
24713;SDS011;12820;51.580;5.010;2023-07-20T13:52:10;4.40;;;1.40;;
24713;SDS011;12820;51.580;5.010;2023-07-20T13:57:15;3.15;;;1.42;;
24713;SDS011;12820;51.580;5.010;2023-07-20T14:02:18;2.92;;;1.27;;
24713;SDS011;12820;51.580;5.010;2023-07-20T14:07:23;3.83;;;1.40;;
24713;SDS011;12820;51.580;5.010;2023-07-20T14:12:25;3.65;;;1.40;;
24713;SDS011;12820;51.580;5.010;2023-07-20T14:17:27;3.08;;;1.02;;
24713;SDS011;12820;51.580;5.010;2023-07-20T14:22:30;5.97;;;1.50;;
24713;SDS011;12820;51.580;5.010;2023-07-20T14:27:32;2.42;;;1.02;;
24713;SDS011;12820;51.580;5.010;2023-07-20T14:32:34;2.30;;;1.02;;
24713;SDS011;12820;51.580;5.010;2023-07-20T14:37:37;4.90;;;1.55;;
24713;SDS011;12820;51.580;5.010;2023-07-20T14:42:39;4.07;;;1.33;;
24713;SDS011;12820;51.580;5.010;2023-07-20T14:47:41;4.40;;;1.38;;
24713;SDS011;12820;51.580;5.010;2023-07-20T14:52:45;6.47;;;1.60;;
24713;SDS011;12820;51.580;5.010;2023-07-20T14:57:51;6.20;;;1.50;;
24713;SDS011;12820;51.580;5.010;2023-07-20T15:02:53;3.35;;;1.50;;
24713;SDS011;12820;51.580;5.010;2023-07-20T15:07:58;4.90;;;1.40;;
24713;SDS011;12820;51.580;5.010;2023-07-20T15:13:00;3.40;;;1.27;;
24713;SDS011;12820;51.580;5.010;2023-07-20T15:18:03;4.40;;;1.40;;
24713;SDS011;12820;51.580;5.010;2023-07-20T15:23:06;6.30;;;1.90;;
24713;SDS011;12820;51.580;5.010;2023-07-20T15:28:08;3.28;;;1.40;;
24713;SDS011;12820;51.580;5.010;2023-07-20T15:33:11;4.30;;;1.38;;
24713;SDS011;12820;51.580;5.010;2023-07-20T15:38:13;7.97;;;1.73;;
24713;SDS011;12820;51.580;5.010;2023-07-20T15:43:15;3.70;;;1.20;;
24713;SDS011;12820;51.580;5.010;2023-07-20T15:48:21;5.40;;;1.38;;
24713;SDS011;12820;51.580;5.010;2023-07-20T15:53:24;2.58;;;1.25;;
24713;SDS011;12820;51.580;5.010;2023-07-20T15:58:27;2.92;;;1.13;;
24713;SDS011;12820;51.580;5.010;2023-07-20T16:03:29;3.95;;;1.13;;
24713;SDS011;12820;51.580;5.010;2023-07-20T16:08:34;4.03;;;1.60;;
24713;SDS011;12820;51.580;5.010;2023-07-20T16:13:36;5.78;;;1.30;;
24713;SDS011;12820;51.580;5.010;2023-07-20T16:18:39;4.43;;;1.20;;
24713;SDS011;12820;51.580;5.010;2023-07-20T16:23:41;3.55;;;1.20;;
24713;SDS011;12820;51.580;5.010;2023-07-20T16:28:43;2.63;;;0.90;;
24713;SDS011;12820;51.580;5.010;2023-07-20T16:33:47;4.00;;;1.10;;
24713;SDS011;12820;51.580;5.010;2023-07-20T16:38:49;2.97;;;1.10;;
24713;SDS011;12820;51.580;5.010;2023-07-20T16:44:11;3.88;;;1.20;;
24713;SDS011;12820;51.580;5.010;2023-07-20T16:49:13;4.28;;;1.10;;
24713;SDS011;12820;51.580;5.010;2023-07-20T16:54:15;3.10;;;1.10;;
24713;SDS011;12820;51.580;5.010;2023-07-20T16:59:19;2.70;;;0.85;;
24713;SDS011;12820;51.580;5.010;2023-07-20T17:04:21;2.50;;;1.00;;
24713;SDS011;12820;51.580;5.010;2023-07-20T17:09:23;3.58;;;1.10;;
24713;SDS011;12820;51.580;5.010;2023-07-20T17:14:26;2.90;;;0.90;;
24713;SDS011;12820;51.580;5.010;2023-07-20T17:19:29;3.20;;;0.88;;
24713;SDS011;12820;51.580;5.010;2023-07-20T17:24:34;3.60;;;1.00;;
24713;SDS011;12820;51.580;5.010;2023-07-20T17:29:39;2.65;;;0.80;;
24713;SDS011;12820;51.580;5.010;2023-07-20T17:34:41;3.03;;;0.98;;
24713;SDS011;12820;51.580;5.010;2023-07-20T17:39:44;3.92;;;1.10;;
24713;SDS011;12820;51.580;5.010;2023-07-20T17:44:49;2.28;;;0.93;;
24713;SDS011;12820;51.580;5.010;2023-07-20T17:49:51;2.47;;;0.95;;
24713;SDS011;12820;51.580;5.010;2023-07-20T17:54:53;6.18;;;1.10;;
24713;SDS011;12820;51.580;5.010;2023-07-20T17:59:56;4.07;;;1.00;;
24713;SDS011;12820;51.580;5.010;2023-07-20T18:05:02;3.13;;;1.10;;
24713;SDS011;12820;51.580;5.010;2023-07-20T18:10:04;2.97;;;1.20;;
24713;SDS011;12820;51.580;5.010;2023-07-20T18:15:07;3.50;;;1.08;;
24713;SDS011;12820;51.580;5.010;2023-07-20T18:20:12;2.10;;;0.90;;
24713;SDS011;12820;51.580;5.010;2023-07-20T18:25:14;3.00;;;1.25;;
24713;SDS011;12820;51.580;5.010;2023-07-20T18:30:16;3.83;;;1.05;;
24713;SDS011;12820;51.580;5.010;2023-07-20T18:35:20;3.90;;;1.42;;
24713;SDS011;12820;51.580;5.010;2023-07-20T18:40:23;3.75;;;1.20;;
24713;SDS011;12820;51.580;5.010;2023-07-20T18:45:25;1.77;;;0.88;;
24713;SDS011;12820;51.580;5.010;2023-07-20T18:50:31;3.22;;;1.20;;
24713;SDS011;12820;51.580;5.010;2023-07-20T18:55:33;1.98;;;0.90;;
24713;SDS011;12820;51.580;5.010;2023-07-20T19:00:37;4.55;;;1.27;;
24713;SDS011;12820;51.580;5.010;2023-07-20T19:05:39;3.15;;;1.30;;
24713;SDS011;12820;51.580;5.010;2023-07-20T19:10:46;2.90;;;1.30;;
24713;SDS011;12820;51.580;5.010;2023-07-20T19:15:51;2.72;;;1.20;;
24713;SDS011;12820;51.580;5.010;2023-07-20T19:20:59;3.97;;;1.27;;
24713;SDS011;12820;51.580;5.010;2023-07-20T19:26:05;4.18;;;1.55;;
24713;SDS011;12820;51.580;5.010;2023-07-20T19:31:10;3.47;;;1.60;;
24713;SDS011;12820;51.580;5.010;2023-07-20T19:36:12;4.05;;;1.77;;
24713;SDS011;12820;51.580;5.010;2023-07-20T19:41:14;3.88;;;1.70;;
24713;SDS011;12820;51.580;5.010;2023-07-20T19:46:17;4.50;;;1.90;;
24713;SDS011;12820;51.580;5.010;2023-07-20T19:51:19;4.78;;;2.15;;
24713;SDS011;12820;51.580;5.010;2023-07-20T19:56:21;3.90;;;1.77;;
24713;SDS011;12820;51.580;5.010;2023-07-20T20:01:24;4.15;;;1.80;;
24713;SDS011;12820;51.580;5.010;2023-07-20T20:06:28;3.63;;;1.70;;
24713;SDS011;12820;51.580;5.010;2023-07-20T20:11:31;12.48;;;8.90;;
24713;SDS011;12820;51.580;5.010;2023-07-20T20:16:33;17.20;;;10.23;;
24713;SDS011;12820;51.580;5.010;2023-07-20T20:21:36;5.25;;;2.70;;
24713;SDS011;12820;51.580;5.010;2023-07-20T20:26:38;4.70;;;2.03;;
24713;SDS011;12820;51.580;5.010;2023-07-20T20:31:42;4.20;;;1.67;;
24713;SDS011;12820;51.580;5.010;2023-07-20T20:36:44;5.90;;;1.95;;
24713;SDS011;12820;51.580;5.010;2023-07-20T20:41:47;5.75;;;1.67;;
24713;SDS011;12820;51.580;5.010;2023-07-20T20:46:49;5.10;;;1.90;;
24713;SDS011;12820;51.580;5.010;2023-07-20T20:51:52;8.75;;;2.17;;
24713;SDS011;12820;51.580;5.010;2023-07-20T20:56:54;4.30;;;2.10;;
24713;SDS011;12820;51.580;5.010;2023-07-20T21:01:58;4.80;;;2.20;;
24713;SDS011;12820;51.580;5.010;2023-07-20T21:07:00;4.35;;;2.10;;
24713;SDS011;12820;51.580;5.010;2023-07-20T21:12:02;3.78;;;2.33;;
24713;SDS011;12820;51.580;5.010;2023-07-20T21:17:04;5.57;;;2.58;;
24713;SDS011;12820;51.580;5.010;2023-07-20T21:22:07;6.65;;;2.60;;
24713;SDS011;12820;51.580;5.010;2023-07-20T21:27:09;4.90;;;2.50;;
24713;SDS011;12820;51.580;5.010;2023-07-20T21:32:11;5.25;;;2.60;;
24713;SDS011;12820;51.580;5.010;2023-07-20T21:37:14;5.40;;;2.85;;
24713;SDS011;12820;51.580;5.010;2023-07-20T21:42:17;6.90;;;2.72;;
24713;SDS011;12820;51.580;5.010;2023-07-20T21:47:19;5.18;;;2.80;;
24713;SDS011;12820;51.580;5.010;2023-07-20T21:52:22;6.13;;;2.90;;
24713;SDS011;12820;51.580;5.010;2023-07-20T21:57:24;8.50;;;2.75;;
24713;SDS011;12820;51.580;5.010;2023-07-20T22:02:26;4.85;;;2.83;;
24713;SDS011;12820;51.580;5.010;2023-07-20T22:07:29;6.25;;;2.78;;
24713;SDS011;12820;51.580;5.010;2023-07-20T22:12:31;5.32;;;2.83;;
24713;SDS011;12820;51.580;5.010;2023-07-20T22:17:33;5.57;;;3.00;;
24713;SDS011;12820;51.580;5.010;2023-07-20T22:22:35;6.85;;;3.13;;
24713;SDS011;12820;51.580;5.010;2023-07-20T22:27:38;9.10;;;3.28;;
24713;SDS011;12820;51.580;5.010;2023-07-20T22:32:40;5.03;;;3.08;;
24713;SDS011;12820;51.580;5.010;2023-07-20T22:37:44;9.85;;;3.28;;
24713;SDS011;12820;51.580;5.010;2023-07-20T22:42:47;9.48;;;4.03;;
24713;SDS011;12820;51.580;5.010;2023-07-20T22:47:50;6.68;;;3.53;;
24713;SDS011;12820;51.580;5.010;2023-07-20T22:52:52;8.00;;;4.10;;
24713;SDS011;12820;51.580;5.010;2023-07-20T22:57:55;9.27;;;3.97;;
24713;SDS011;12820;51.580;5.010;2023-07-20T23:02:57;8.32;;;3.80;;
24713;SDS011;12820;51.580;5.010;2023-07-20T23:08:00;7.65;;;3.83;;
24713;SDS011;12820;51.580;5.010;2023-07-20T23:13:02;6.50;;;4.10;;
24713;SDS011;12820;51.580;5.010;2023-07-20T23:18:04;6.35;;;3.33;;
24713;SDS011;12820;51.580;5.010;2023-07-20T23:23:08;5.85;;;3.60;;
24713;SDS011;12820;51.580;5.010;2023-07-20T23:28:10;6.95;;;3.20;;
24713;SDS011;12820;51.580;5.010;2023-07-20T23:33:12;6.07;;;3.13;;
24713;SDS011;12820;51.580;5.010;2023-07-20T23:38:15;5.47;;;2.90;;
24713;SDS011;12820;51.580;5.010;2023-07-20T23:43:18;5.25;;;2.85;;
24713;SDS011;12820;51.580;5.010;2023-07-20T23:48:21;5.00;;;2.70;;
24713;SDS011;12820;51.580;5.010;2023-07-20T23:53:25;4.43;;;2.58;;
24713;SDS011;12820;51.580;5.010;2023-07-20T23:58:27;5.72;;;3.08;;
